This is the latest recevied weather packets stored in our database for station/object KE0FIN. If no packets are shown the sender has not sent any weather packets the latest 1 day(s).
| Time | Temp. | Humidity | Pressure | Rain* | Wind** | Luminosity | Snow |
|---|---|---|---|---|---|---|---|
| 1778019929 | 12.78° C | 59% | 1063 hPa | 0 mm | 0.45 m/s, 87° | 110 W/m² | - |
| 1778019625 | 12.78° C | 59% | 1062.9 hPa | 0 mm | 0.89 m/s, 126° | 101 W/m² | - |
| 1778019323 | 12.78° C | 59% | 1062.9 hPa | 0 mm | 0 m/s | 114 W/m² | - |
| 1778019019 | 12.78° C | 58% | 1062.8 hPa | 0 mm | 1.34 m/s, 138° | 137 W/m² | - |
| 1778018716 | 12.78° C | 58% | 1063.2 hPa | 0 mm | 0.45 m/s, 120° | 125 W/m² | - |
| 1778018414 | 12.78° C | 61% | 1063.2 hPa | 0 mm | 0.45 m/s, 140° | 121 W/m² | - |
| 1778018112 | 12.22° C | 63% | 1063.3 hPa | 0 mm | 0.45 m/s, 99° | 115 W/m² | - |
| 1778017809 | 12.22° C | 63% | 1063.2 hPa | 0 mm | 0.89 m/s, 116° | 101 W/m² | - |
| 1778017508 | 12.22° C | 63% | 1063.4 hPa | 0 mm | 0.45 m/s, 108° | 93 W/m² | - |
| 1778017204 | 12.22° C | 64% | 1063.2 hPa | 0 mm | 0 m/s | 89 W/m² | - |
| 1778016902 | 12.78° C | 63% | 1063.3 hPa | 0 mm | 1.79 m/s, 174° | 93 W/m² | - |
| 1778016598 | 12.78° C | 62% | 1063.2 hPa | 0 mm | 0.45 m/s, 110° | 129 W/m² | - |
| 1778016294 | 13.33° C | 64% | 1063.1 hPa | 0 mm | 0.45 m/s, 76° | 151 W/m² | - |
| 1778015991 | 12.78° C | 69% | 1063.1 hPa | 0 mm | 0 m/s | 198 W/m² | - |
| 1778015689 | 12.78° C | 68% | 1063 hPa | 0 mm | 0 m/s | 216 W/m² | - |
| 1778015385 | 12.22° C | 70% | 1063.3 hPa | 0 mm | 0 m/s | 191 W/m² | - |
| 1778015082 | 12.78° C | 71% | 1063.5 hPa | 0 mm | 0.45 m/s, 89° | 200 W/m² | - |
| 1778014779 | 12.22° C | 73% | 1063.5 hPa | 0 mm | 0 m/s | 196 W/m² | - |
| 1778014477 | 12.22° C | 74% | 1063.5 hPa | 0 mm | 0.45 m/s, 117° | 199 W/m² | - |
| 1778014173 | 11.67° C | 75% | 1063.5 hPa | 0 mm | 0 m/s | 185 W/m² | - |
| 1778013872 | 11.11° C | 76% | 1063.6 hPa | 0 mm | 0.45 m/s, 143° | 200 W/m² | - |
| 1778013569 | 11.67° C | 75% | 1063.5 hPa | 0 mm | 0.45 m/s, 45° | 179 W/m² | - |
| 1778013265 | 11.11° C | 77% | 1063.9 hPa | 0 mm | 0 m/s | 141 W/m² | - |
| 1778012961 | 10.56° C | 77% | 1063.9 hPa | 0 mm | 0 m/s | 121 W/m² | - |
| 1778012658 | 10.56° C | 78% | 1063.7 hPa | 0 mm | 0.45 m/s, 138° | 174 W/m² | - |
* Rain latest hour (hover to see other rain measurements)
** Current wind speed in m/s (hover to see current wind gust speed)